Terminal Aerodrome Forecast
Issued by NWS

Home | Current Version | Previous Version | Text Only | Print | Product List | Glossary On
Versions: 1 2 3 4 5 6 7 8 9 10 11 12
172
FTUS44 KTSA 252339
TAFXNA
TAF
KXNA 252339Z 2600/2624 VRB03KT P6SM BKN250
     FM260600 VRB02KT 4SM BR BKN100 PROB30 2610/2615 4SM TSRA
      BKN050CB
     FM261500 11005KT P6SM SCT050 BKN100 PROB30 2615/2621 4SM TSRA
      BKN050CB=

USA.gov is the U.S. government's official web portal to all federal, state and local government web resources and services.